Alexandria, NE

7:15 PM CDT on August 27, 2015 (GMT -0500)
Crystal Springs Campground | | Change Station
CLOSE
Current Station
Personal Weather Station
Location: Fairbury, NE
Elevation: 1424 ft
Nearby Weather Stations
Active Advisory: Severe Thunderstorm Watch

Elev 1424 ft 40.13 °N, 97.21 °W | Updated 7 seconds ago

Rain
Rain
77.4 °F
Feels Like 79 °F
N
2.0
Wind Variable Wind from South
Gusts 21.0 mph

Today
High -- | Low -- °F
--% Chance of Precip.
Yesterday
High -- | Low -- °F
Precip. -- in
6:52 AM 8:09 PM
Waxing Gibbous, 95% visible
Pressure 29.85 in
Visibility 10.0 miles
Clouds Scattered Clouds 3200 ft
Scattered Clouds 3700 ft
Mostly Cloudy 4400 ft
Heat Index 79 °F
Dew Point 68 °F
Humidity 72%
Rainfall 0.02 in
Snow Depth Not available.
UV 0 out of 12
Pollen 10.30 out of 12
Air Quality Not available.
Flu Activity Not available.
METAR KHJH 272355Z AUTO 15007KT 10SM -RA SCT032 SCT037 BKN044 24/19 A2985 RMK AO2 LTG DSNT NE THRU S P0007 60007 T02430190 10305 20242
Pressure 29.85 in
Visibility 10.0 miles
Clouds Scattered Clouds 3200 ft
Scattered Clouds 3700 ft
Mostly Cloudy 4400 ft
Heat Index 79 °F
Dew Point 68 °F
Humidity 72%
Rainfall 0.02 in
Snow Depth Not available.
UV 0 out of 12
Pollen 10.30 out of 12
Air Quality Not available.
Flu Activity Not available.
METAR KHJH 272355Z AUTO 15007KT 10SM -RA SCT032 SCT037 BKN044 24/19 A2985 RMK AO2 LTG DSNT NE THRU S P0007 60007 T02430190 10305 20242

10-Day Weather Forecast

×

Almanac

Astronomy

Aug. 27, 2015 Rise Set
Actual Time
Civil Twilight
Nautical Twilight
Astronomical Twilight
Moon
Length of Visible Light
Length of Day
Tomorrow will be .
, % of the Moon is Illuminated

Today's Extremes

State Highs State Lows

Community

WunderPhotos

Upload Photos

1,850,272 photos uploaded!

WunderBlogs® & News

Nearby

Air Quality

  Air Quality AQ Index Pollutant
Not available.

Snow Depth

Station Depth Elevation

Earthquake Activity

City Distance Mag. Time & Date
Minimum magnitude displayed is 2.5.

Coastal Water Temperatures

Place Temperature

Stations

Nearby Weather Stations

Station Location Temp. Windchill Dew Point Humidity Wind Precip. Elev Updated Type
                   
Severe Thunderstorm Watch
Statement as of 7:03 PM CDT on August 27, 2015

Severe Thunderstorm Watch 501 remains in effect until 1200 am CDT
for the following locations


NE
. Nebraska counties included are

Antelope Blaine Boone
Boyd Brown Buffalo
Butler Clay Colfax
Custer Dawson Fillmore
Garfield Greeley Hall
Hamilton Holt Howard
Jefferson Knox Loup
Madison Merrick Nance
Pierce Platte Polk
rock Saline Seward
Sherman Thayer valley
Wheeler York